createdAt,value
2022-12-20T00:00:47.236Z,100.00
2022-12-20T00:03:18.943Z,100.00
2022-12-20T00:05:50.801Z,100.00
2022-12-20T00:08:22.457Z,100.00
2022-12-20T00:10:53.971Z,100.00
2022-12-20T00:13:23.697Z,100.00
2022-12-20T00:16:01.322Z,100.00
2022-12-20T00:18:32.918Z,100.00
2022-12-20T00:21:06.388Z,100.00
2022-12-20T00:23:38.649Z,100.00
2022-12-20T00:26:11.100Z,100.00
2022-12-20T00:28:43.271Z,100.00
2022-12-20T00:31:16.177Z,100.00
2022-12-20T00:33:49.742Z,100.00
2022-12-20T00:36:21.309Z,100.00
2022-12-20T00:38:51.695Z,100.00
2022-12-20T00:41:24.404Z,100.00
2022-12-20T00:43:56.129Z,100.00
2022-12-20T00:46:27.736Z,100.00
2022-12-20T00:48:59.339Z,100.00
2022-12-20T00:51:32.975Z,100.00
2022-12-20T00:54:05.276Z,100.00
2022-12-20T00:56:36.858Z,100.00
2022-12-20T00:59:08.545Z,100.00
2022-12-20T01:01:40.481Z,100.00
2022-12-20T01:04:12.163Z,100.00
2022-12-20T01:06:46.885Z,100.00
2022-12-20T01:09:18.368Z,100.00
2022-12-20T01:11:48.243Z,100.00
2022-12-20T01:14:20.151Z,100.00
2022-12-20T01:16:51.796Z,100.00
2022-12-20T01:19:23.371Z,100.00
2022-12-20T01:21:55.140Z,100.00
2022-12-20T01:24:26.539Z,100.00
2022-12-20T01:26:56.374Z,100.00
2022-12-20T01:29:28.053Z,100.00
2022-12-20T01:31:59.647Z,100.00
2022-12-20T01:34:31.196Z,100.00
2022-12-20T01:37:03.013Z,100.00
2022-12-20T01:39:34.498Z,100.00
2022-12-20T01:42:04.463Z,100.00
2022-12-20T01:45:01.670Z,100.00
2022-12-20T01:47:34.105Z,100.00
2022-12-20T01:50:05.833Z,100.00
2022-12-20T01:52:38.803Z,100.00
2022-12-20T01:55:12.780Z,100.00
2022-12-20T01:57:46.876Z,100.00
2022-12-20T02:00:19.811Z,100.00
2022-12-20T02:02:52.257Z,100.00
2022-12-20T02:05:24.717Z,100.00
2022-12-20T02:07:57.502Z,100.00
2022-12-20T02:10:31.404Z,100.00
2022-12-20T02:13:06.799Z,100.00
2022-12-20T02:15:47.274Z,100.00
2022-12-20T02:18:23.686Z,100.00
2022-12-20T02:21:23.482Z,100.00
2022-12-20T02:24:27.396Z,100.00
2022-12-20T02:27:14.414Z,100.00
2022-12-20T02:30:08.226Z,100.00
2022-12-20T02:32:43.138Z,100.00
2022-12-20T02:35:16.788Z,100.00
2022-12-20T02:37:53.372Z,100.00
2022-12-20T02:40:27.272Z,100.00
2022-12-20T02:43:00.563Z,100.00
2022-12-20T02:45:35.502Z,100.00
2022-12-20T02:48:09.015Z,100.00
2022-12-20T02:50:42.031Z,100.00
2022-12-20T02:53:14.060Z,100.00
2022-12-20T02:55:49.675Z,100.00
2022-12-20T02:58:23.171Z,100.00
2022-12-20T03:00:55.304Z,100.00
2022-12-20T03:03:26.846Z,100.00
2022-12-20T03:05:58.592Z,100.00
2022-12-20T03:08:30.410Z,100.00
2022-12-20T03:11:02.112Z,100.00
2022-12-20T03:13:35.541Z,100.00
2022-12-20T03:16:12.167Z,100.00
2022-12-20T03:18:45.665Z,100.00
2022-12-20T03:21:17.259Z,100.00
2022-12-20T03:23:47.197Z,100.00
2022-12-20T03:26:18.881Z,100.00
2022-12-20T03:28:54.307Z,100.00
2022-12-20T03:31:27.333Z,100.00
2022-12-20T03:33:59.367Z,100.00
2022-12-20T03:36:31.296Z,100.00
2022-12-20T03:39:05.943Z,100.00
2022-12-20T03:41:40.763Z,100.00
2022-12-20T03:44:12.740Z,100.00
2022-12-20T03:46:44.932Z,100.00
2022-12-20T03:49:16.735Z,100.00
2022-12-20T03:51:51.978Z,100.00
2022-12-20T03:54:23.678Z,100.00
2022-12-20T03:57:06.603Z,100.00
2022-12-20T03:59:38.673Z,100.00
2022-12-20T04:02:10.995Z,100.00
2022-12-20T04:04:42.807Z,100.00
2022-12-20T04:07:14.505Z,100.00
2022-12-20T04:09:49.121Z,100.00
2022-12-20T04:12:19.024Z,100.00
2022-12-20T04:14:50.425Z,100.00
2022-12-20T04:17:20.203Z,100.00
2022-12-20T04:19:52.347Z,100.00
2022-12-20T04:22:23.994Z,100.00
2022-12-20T04:25:00.545Z,100.00
2022-12-20T04:27:36.822Z,100.00
2022-12-20T04:30:12.558Z,100.00
2022-12-20T04:32:44.179Z,100.00
2022-12-20T04:35:15.767Z,100.00
2022-12-20T04:37:47.506Z,100.00
2022-12-20T04:40:19.574Z,100.00
2022-12-20T04:42:53.852Z,100.00
2022-12-20T04:45:23.592Z,100.00
2022-12-20T04:47:55.917Z,100.00
2022-12-20T04:50:31.329Z,100.00
2022-12-20T04:53:20.598Z,100.00
2022-12-20T04:55:52.409Z,100.00
2022-12-20T04:58:23.946Z,100.00
2022-12-20T05:00:54.104Z,100.00
2022-12-20T05:03:30.527Z,100.00
2022-12-20T05:06:02.407Z,100.00
2022-12-20T05:08:34.145Z,100.00
2022-12-20T05:11:06.158Z,100.00
2022-12-20T05:13:37.829Z,100.00
2022-12-20T05:16:09.717Z,100.00
2022-12-20T05:18:48.200Z,100.00
2022-12-20T05:21:38.655Z,100.00
2022-12-20T05:24:30.023Z,100.00
2022-12-20T05:27:10.720Z,100.00
2022-12-20T05:29:42.990Z,100.00
2022-12-20T05:32:15.114Z,100.00
2022-12-20T05:34:47.225Z,100.00
2022-12-20T05:37:20.039Z,100.00
2022-12-20T05:39:51.851Z,100.00
2022-12-20T05:42:26.068Z,100.00
2022-12-20T05:44:57.913Z,100.00
2022-12-20T05:47:31.116Z,100.00
2022-12-20T05:50:12.282Z,100.00
2022-12-20T05:53:11.809Z,100.00
2022-12-20T05:55:48.867Z,100.00
2022-12-20T05:58:20.815Z,100.00
2022-12-20T06:00:57.719Z,100.00
2022-12-20T06:03:30.038Z,100.00
2022-12-20T06:06:02.267Z,100.00
2022-12-20T06:08:36.694Z,100.00
2022-12-20T06:11:11.980Z,100.00
2022-12-20T06:13:53.075Z,100.00
2022-12-20T06:16:26.198Z,100.00
2022-12-20T06:19:00.947Z,100.00
2022-12-20T06:21:33.290Z,100.00
2022-12-20T06:24:05.364Z,100.00
2022-12-20T06:26:37.543Z,100.00
2022-12-20T06:29:14.397Z,100.00
2022-12-20T06:31:51.383Z,100.00
2022-12-20T06:34:22.829Z,100.00
2022-12-20T06:36:55.113Z,100.00
2022-12-20T06:39:30.637Z,100.00
2022-12-20T06:42:08.589Z,100.00
2022-12-20T06:44:40.923Z,100.00
2022-12-20T06:47:12.681Z,100.00
2022-12-20T06:49:44.313Z,100.00
2022-12-20T06:52:24.133Z,100.00
2022-12-20T06:54:59.013Z,100.00
2022-12-20T06:57:29.242Z,100.00
2022-12-20T07:00:01.216Z,100.00
2022-12-20T07:02:32.773Z,100.00
2022-12-20T07:05:05.471Z,100.00
2022-12-20T07:07:44.368Z,100.00
2022-12-20T07:10:16.910Z,100.00
2022-12-20T07:12:48.910Z,100.00
2022-12-20T07:15:22.481Z,100.00
2022-12-20T07:17:53.829Z,100.00
2022-12-20T07:20:23.956Z,100.00
2022-12-20T07:22:55.872Z,100.00
2022-12-20T07:25:27.661Z,100.00
2022-12-20T07:27:59.222Z,100.00
2022-12-20T07:30:29.016Z,100.00
2022-12-20T07:33:00.751Z,100.00
2022-12-20T07:35:32.293Z,100.00
2022-12-20T07:38:04.300Z,100.00
2022-12-20T07:40:36.121Z,100.00
2022-12-20T07:43:08.760Z,100.00
2022-12-20T07:45:40.350Z,100.00
2022-12-20T07:48:16.395Z,100.00
2022-12-20T07:50:49.823Z,100.00
2022-12-20T07:53:21.577Z,100.00
2022-12-20T07:55:53.206Z,100.00
2022-12-20T07:58:23.056Z,100.00
2022-12-20T08:00:55.360Z,100.00
2022-12-20T08:03:27.943Z,100.00
2022-12-20T08:05:59.759Z,100.00
2022-12-20T08:08:31.220Z,100.00
2022-12-20T08:11:00.988Z,100.00
2022-12-20T08:13:33.214Z,100.00
2022-12-20T08:16:04.881Z,100.00
2022-12-20T08:18:36.468Z,100.00
2022-12-20T08:21:08.826Z,100.00
2022-12-20T08:23:40.428Z,100.00
2022-12-20T08:26:12.024Z,100.00
2022-12-20T08:28:43.656Z,100.00
2022-12-20T08:31:15.148Z,100.00
2022-12-20T08:33:46.998Z,100.00
2022-12-20T08:36:18.467Z,100.00
2022-12-20T08:38:48.257Z,100.00
2022-12-20T08:41:20.920Z,100.00
2022-12-20T08:43:52.428Z,100.00
2022-12-20T08:46:22.463Z,100.00
2022-12-20T08:48:54.193Z,100.00
2022-12-20T08:51:26.259Z,100.00
2022-12-20T08:53:57.897Z,100.00
2022-12-20T08:56:29.893Z,100.00
2022-12-20T08:59:01.619Z,100.00
2022-12-20T09:01:34.538Z,100.00
2022-12-20T09:04:07.421Z,100.00
2022-12-20T09:06:39.347Z,100.00
2022-12-20T09:09:11.114Z,100.00
2022-12-20T09:11:44.034Z,100.00
2022-12-20T09:14:14.202Z,100.00
2022-12-20T09:16:45.619Z,100.00
2022-12-20T09:19:15.655Z,100.00
2022-12-20T09:21:47.125Z,100.00
2022-12-20T09:24:17.537Z,100.00
2022-12-20T09:26:50.769Z,100.00
2022-12-20T09:29:29.609Z,100.00
2022-12-20T09:32:03.757Z,100.00
2022-12-20T09:34:35.344Z,100.00
2022-12-20T09:37:19.763Z,100.00
2022-12-20T09:39:53.488Z,100.00
2022-12-20T09:42:26.176Z,100.00
2022-12-20T09:44:59.690Z,100.00
2022-12-20T09:47:31.107Z,100.00
2022-12-20T09:50:02.822Z,100.00
2022-12-20T09:52:40.366Z,100.00
2022-12-20T09:55:18.989Z,100.00
2022-12-20T09:57:56.940Z,100.00
2022-12-20T10:00:30.797Z,100.00
2022-12-20T10:03:10.181Z,100.00
2022-12-20T10:05:48.002Z,100.00
2022-12-20T10:08:30.380Z,100.00
2022-12-20T10:11:03.972Z,100.00
2022-12-20T10:13:44.566Z,100.00
2022-12-20T10:16:24.534Z,100.00
2022-12-20T10:19:02.978Z,100.00
2022-12-20T10:21:39.160Z,100.00
2022-12-20T10:24:13.951Z,100.00
2022-12-20T10:26:45.638Z,100.00
2022-12-20T10:29:16.162Z,100.00
2022-12-20T10:31:47.672Z,100.00
2022-12-20T10:34:17.567Z,100.00
2022-12-20T10:36:49.582Z,100.00
2022-12-20T10:39:21.894Z,100.00
2022-12-20T10:41:53.826Z,100.00
2022-12-20T10:44:26.976Z,100.00
2022-12-20T10:46:59.502Z,100.00
2022-12-20T10:49:35.534Z,100.00
2022-12-20T10:52:14.991Z,100.00
2022-12-20T10:54:47.014Z,100.00
2022-12-20T10:57:21.874Z,100.00
2022-12-20T10:59:54.332Z,100.00
2022-12-20T11:02:37.227Z,100.00
2022-12-20T11:05:25.392Z,100.00
2022-12-20T11:10:50.876Z,100.00
2022-12-20T11:13:29.310Z,100.00
2022-12-20T11:16:02.042Z,98.75
2022-12-20T11:18:39.846Z,99.70
2022-12-20T11:21:27.400Z,99.68
2022-12-20T11:24:03.688Z,99.68
2022-12-20T11:26:42.600Z,99.69
2022-12-20T11:29:22.214Z,98.91
2022-12-20T11:31:58.401Z,95.96
2022-12-20T11:34:36.112Z,96.02
2022-12-20T11:37:16.161Z,95.51
2022-12-20T11:39:59.022Z,94.99
2022-12-20T11:42:33.561Z,84.26
2022-12-20T11:45:09.628Z,77.59
2022-12-20T11:48:04.287Z,73.67
2022-12-20T11:50:47.214Z,71.82
2022-12-20T11:53:24.639Z,70.33
2022-12-20T11:55:58.076Z,68.74
2022-12-20T11:58:31.163Z,66.34
2022-12-20T12:01:05.095Z,66.06
2022-12-20T12:03:39.269Z,66.52
2022-12-20T12:06:12.749Z,66.69
2022-12-20T12:08:47.105Z,67.02
2022-12-20T12:12:03.824Z,67.51
2022-12-20T12:14:16.097Z,67.91
2022-12-20T12:16:49.351Z,67.90
2022-12-20T12:19:20.996Z,68.49
2022-12-20T12:21:51.696Z,69.14
2022-12-20T12:24:26.944Z,69.44
2022-12-20T12:26:59.135Z,68.94
2022-12-20T12:29:31.312Z,68.96
2022-12-20T12:32:04.241Z,69.17
2022-12-20T12:34:46.592Z,68.91
2022-12-20T12:37:38.671Z,69.66
2022-12-20T12:40:34.195Z,70.39
2022-12-20T12:43:38.421Z,70.23
2022-12-20T12:46:15.468Z,69.10
2022-12-20T12:48:50.721Z,69.50
2022-12-20T12:51:27.309Z,68.02
2022-12-20T12:54:19.653Z,67.06
2022-12-20T12:56:51.247Z,67.37
2022-12-20T12:59:41.676Z,66.86
2022-12-20T13:02:36.932Z,66.48
2022-12-20T13:05:36.032Z,67.88
2022-12-20T13:08:10.796Z,69.57
2022-12-20T13:11:14.950Z,71.24
2022-12-20T13:13:46.534Z,72.53
2022-12-20T13:16:48.685Z,74.42
2022-12-20T13:19:31.784Z,75.65
2022-12-20T13:22:20.369Z,77.20
2022-12-20T13:24:59.157Z,76.84
2022-12-20T13:27:39.530Z,76.17
2022-12-20T13:30:30.859Z,76.36
2022-12-20T13:33:26.852Z,76.52
2022-12-20T13:36:06.419Z,76.57
2022-12-20T13:38:53.738Z,77.00
2022-12-20T13:41:37.809Z,77.48
2022-12-20T13:44:36.559Z,77.89
2022-12-20T13:47:18.071Z,78.58
2022-12-20T13:49:49.911Z,79.52
2022-12-20T13:52:25.869Z,80.06
2022-12-20T13:54:58.658Z,81.57
2022-12-20T13:57:33.108Z,82.54
2022-12-20T14:00:08.094Z,83.25
2022-12-20T14:02:43.517Z,84.03
2022-12-20T14:05:21.485Z,84.35
2022-12-20T14:07:56.321Z,84.19
2022-12-20T14:10:29.068Z,84.28
2022-12-20T14:13:00.673Z,85.62
2022-12-20T14:15:33.631Z,88.18
2022-12-20T14:18:17.940Z,89.42
2022-12-20T14:20:50.446Z,89.42
2022-12-20T14:23:23.198Z,89.24
2022-12-20T14:25:55.673Z,90.04
2022-12-20T14:28:32.660Z,92.42
2022-12-20T14:31:04.515Z,94.04
2022-12-20T14:33:38.552Z,94.75
2022-12-20T14:36:19.797Z,95.10
2022-12-20T14:38:52.239Z,95.50
2022-12-20T14:41:35.175Z,98.04
2022-12-20T14:44:19.025Z,99.99
2022-12-20T14:46:54.502Z,100.00
2022-12-20T14:49:27.343Z,100.00
2022-12-20T14:52:09.105Z,100.00
2022-12-20T14:55:12.948Z,100.00
2022-12-20T14:57:40.290Z,100.00
2022-12-20T15:00:21.546Z,100.00
2022-12-20T15:02:59.637Z,100.00
2022-12-20T15:05:52.821Z,100.00
2022-12-20T15:08:27.477Z,100.00
2022-12-20T15:11:04.019Z,100.00
2022-12-20T15:13:37.039Z,100.00
2022-12-20T15:16:15.216Z,100.00
2022-12-20T15:18:46.621Z,100.00
2022-12-20T15:21:20.485Z,100.00
2022-12-20T15:23:53.612Z,100.00
2022-12-20T15:26:26.112Z,100.00
2022-12-20T15:28:57.946Z,100.00
2022-12-20T15:31:33.663Z,100.00
2022-12-20T15:34:06.593Z,100.00
2022-12-20T15:36:38.661Z,100.00
2022-12-20T15:39:12.925Z,100.00
2022-12-20T15:41:46.660Z,100.00
2022-12-20T15:44:20.862Z,100.00
2022-12-20T15:46:53.619Z,100.00
2022-12-20T15:49:26.325Z,100.00
2022-12-20T15:51:57.852Z,100.00
2022-12-20T15:54:30.563Z,100.00
2022-12-20T15:57:03.810Z,100.00
2022-12-20T16:02:29.896Z,100.00
2022-12-20T16:05:02.007Z,100.00
2022-12-20T16:07:33.796Z,100.00
2022-12-20T16:10:05.753Z,100.00
2022-12-20T16:12:38.852Z,100.00
2022-12-20T16:15:15.175Z,100.00
2022-12-20T16:17:46.719Z,100.00
2022-12-20T16:20:19.729Z,100.00
2022-12-20T16:22:51.969Z,100.00
2022-12-20T16:25:29.774Z,100.00
2022-12-20T16:28:01.186Z,100.00
2022-12-20T16:30:32.873Z,100.00
2022-12-20T16:33:04.645Z,100.00
2022-12-20T16:35:37.591Z,100.00
2022-12-20T16:38:10.374Z,100.00
2022-12-20T16:40:41.902Z,100.00
2022-12-20T16:43:13.390Z,100.00
2022-12-20T16:45:44.828Z,100.00
2022-12-20T16:48:16.409Z,100.00
2022-12-20T16:50:47.963Z,100.00
2022-12-20T16:53:19.625Z,100.00
2022-12-20T16:55:49.399Z,100.00
2022-12-20T16:58:23.727Z,100.00
2022-12-20T17:01:00.627Z,100.00
2022-12-20T17:03:33.010Z,100.00
2022-12-20T17:06:05.304Z,100.00
2022-12-20T17:11:25.272Z,100.00
2022-12-20T17:13:57.514Z,100.00
2022-12-20T17:16:29.311Z,100.00
2022-12-20T17:19:01.152Z,100.00
2022-12-20T17:24:22.078Z,100.00
2022-12-20T17:26:53.706Z,100.00
2022-12-20T17:29:25.491Z,100.00
2022-12-20T17:31:57.104Z,100.00
2022-12-20T17:34:30.424Z,100.00
2022-12-20T17:37:02.063Z,100.00
2022-12-20T17:39:33.942Z,100.00
2022-12-20T17:42:05.526Z,100.00
2022-12-20T17:44:37.959Z,100.00
2022-12-20T17:47:09.526Z,100.00
2022-12-20T17:49:41.158Z,100.00
2022-12-20T17:52:12.959Z,100.00
2022-12-20T17:54:42.693Z,100.00
2022-12-20T17:57:17.201Z,100.00
2022-12-20T17:59:48.703Z,100.00
2022-12-20T18:02:28.123Z,100.00
2022-12-20T18:05:00.012Z,100.00
2022-12-20T18:07:29.849Z,100.00
2022-12-20T18:10:01.339Z,100.00
2022-12-20T18:12:37.421Z,100.00
2022-12-20T18:15:11.132Z,100.00
2022-12-20T18:17:42.880Z,100.00
2022-12-20T18:20:15.889Z,100.00
2022-12-20T18:22:47.635Z,100.00
2022-12-20T18:25:19.363Z,100.00
2022-12-20T18:27:50.921Z,100.00
2022-12-20T18:30:21.473Z,100.00
2022-12-20T18:32:53.164Z,100.00
2022-12-20T18:35:24.567Z,100.00
2022-12-20T18:37:56.417Z,100.00
2022-12-20T18:40:28.135Z,100.00
2022-12-20T18:43:05.838Z,100.00
2022-12-20T18:45:39.229Z,100.00
2022-12-20T18:48:12.080Z,100.00
2022-12-20T18:50:44.225Z,100.00
2022-12-20T18:53:15.839Z,100.00
2022-12-20T18:55:47.985Z,100.00
2022-12-20T18:58:19.853Z,100.00
2022-12-20T19:00:54.854Z,100.00
2022-12-20T19:03:26.685Z,100.00
2022-12-20T19:05:58.470Z,100.00
2022-12-20T19:08:30.759Z,100.00
2022-12-20T19:11:02.868Z,100.00
2022-12-20T19:13:34.885Z,100.00
2022-12-20T19:16:08.500Z,100.00
2022-12-20T19:18:41.384Z,100.00
2022-12-20T19:21:13.999Z,100.00
2022-12-20T19:23:46.905Z,100.00
2022-12-20T19:26:18.357Z,100.00
2022-12-20T19:28:50.021Z,100.00
2022-12-20T19:31:24.244Z,100.00
2022-12-20T19:33:56.556Z,100.00
2022-12-20T19:36:29.263Z,100.00
2022-12-20T19:39:02.562Z,100.00
2022-12-20T19:41:35.108Z,100.00
2022-12-20T19:44:07.576Z,100.00
2022-12-20T19:46:39.379Z,100.00
2022-12-20T19:49:11.096Z,100.00
2022-12-20T19:51:42.675Z,100.00
2022-12-20T19:54:12.692Z,100.00
2022-12-20T19:56:44.382Z,100.00
2022-12-20T19:59:16.879Z,100.00
2022-12-20T20:01:48.939Z,100.00
2022-12-20T20:04:20.625Z,100.00
2022-12-20T20:06:52.662Z,100.00
2022-12-20T20:09:24.485Z,100.00
2022-12-20T20:11:56.145Z,100.00
2022-12-20T20:14:27.979Z,100.00
2022-12-20T20:16:58.100Z,100.00
2022-12-20T20:19:29.878Z,100.00
2022-12-20T20:22:01.461Z,100.00
2022-12-20T20:24:31.376Z,100.00
2022-12-20T20:27:03.319Z,100.00
2022-12-20T20:29:35.219Z,100.00
2022-12-20T20:32:07.907Z,100.00
2022-12-20T20:34:39.723Z,100.00
2022-12-20T20:37:11.670Z,100.00
2022-12-20T20:39:43.925Z,100.00
2022-12-20T20:42:18.518Z,100.00
2022-12-20T20:44:54.607Z,100.00
2022-12-20T20:47:24.422Z,100.00
2022-12-20T20:49:55.904Z,100.00
2022-12-20T20:52:26.127Z,100.00
2022-12-20T20:54:57.735Z,100.00
2022-12-20T20:57:27.892Z,100.00
2022-12-20T20:59:59.436Z,100.00
2022-12-20T21:02:31.593Z,100.00
2022-12-20T21:07:55.673Z,100.00
2022-12-20T21:10:30.304Z,100.00
2022-12-20T21:13:02.095Z,100.00
2022-12-20T21:15:34.737Z,100.00
2022-12-20T21:18:06.563Z,100.00
2022-12-20T21:20:38.776Z,100.00
2022-12-20T21:23:11.435Z,100.00
2022-12-20T21:25:43.138Z,100.00
2022-12-20T21:28:20.977Z,100.00
2022-12-20T21:31:01.044Z,100.00
2022-12-20T21:33:32.879Z,100.00
2022-12-20T21:36:05.966Z,100.00
2022-12-20T21:38:37.534Z,100.00
2022-12-20T21:41:08.267Z,100.00
2022-12-20T21:43:40.045Z,100.00
2022-12-20T21:46:11.921Z,100.00
2022-12-20T21:48:43.931Z,100.00
2022-12-20T21:51:16.349Z,100.00
2022-12-20T21:53:48.637Z,100.00
2022-12-20T21:56:20.367Z,100.00
2022-12-20T21:58:51.032Z,100.00
2022-12-20T22:01:23.642Z,100.00
2022-12-20T22:03:55.912Z,100.00
2022-12-20T22:06:28.401Z,100.00
2022-12-20T22:09:01.554Z,100.00
2022-12-20T22:11:33.276Z,100.00
2022-12-20T22:14:04.714Z,100.00
2022-12-20T22:16:36.344Z,100.00
2022-12-20T22:19:09.241Z,100.00
2022-12-20T22:21:41.134Z,100.00
2022-12-20T22:24:13.021Z,100.00
2022-12-20T22:26:44.952Z,100.00
2022-12-20T22:29:16.506Z,100.00
2022-12-20T22:31:46.916Z,100.00
2022-12-20T22:34:19.003Z,100.00
2022-12-20T22:36:50.759Z,100.00
2022-12-20T22:39:22.356Z,100.00
2022-12-20T22:41:52.218Z,100.00
2022-12-20T22:44:23.942Z,100.00
2022-12-20T22:49:45.121Z,100.00
2022-12-20T22:52:17.061Z,100.00
2022-12-20T22:54:48.716Z,100.00
2022-12-20T22:57:18.583Z,100.00
2022-12-20T22:59:50.563Z,100.00
2022-12-20T23:02:22.548Z,100.00
2022-12-20T23:04:54.457Z,100.00
2022-12-20T23:07:26.116Z,100.00
2022-12-20T23:09:57.854Z,100.00
2022-12-20T23:12:47.006Z,100.00
2022-12-20T23:15:36.574Z,100.00
2022-12-20T23:18:08.365Z,100.00
2022-12-20T23:20:57.715Z,100.00
2022-12-20T23:23:29.233Z,100.00
2022-12-20T23:26:09.436Z,100.00
2022-12-20T23:28:41.211Z,100.00
2022-12-20T23:31:12.883Z,100.00
2022-12-20T23:33:44.505Z,100.00
2022-12-20T23:36:16.039Z,100.00
2022-12-20T23:38:46.355Z,100.00
2022-12-20T23:41:18.473Z,100.00
2022-12-20T23:43:49.819Z,100.00
2022-12-20T23:46:21.990Z,100.00
2022-12-20T23:48:54.116Z,100.00
2022-12-20T23:51:26.064Z,100.00
2022-12-20T23:53:57.507Z,100.00
2022-12-20T23:56:29.177Z,100.00
2022-12-20T23:59:02.535Z,100.00
